createdAt,value
2022-09-07T00:01:00.757Z,1006
2022-09-07T00:02:09.930Z,1006
2022-09-07T00:03:19.095Z,1006
2022-09-07T00:04:28.285Z,1006
2022-09-07T00:05:37.440Z,1006
2022-09-07T00:06:46.611Z,1006
2022-09-07T00:07:54.799Z,1006
2022-09-07T00:09:03.972Z,1005.9
2022-09-07T00:10:13.145Z,1006
2022-09-07T00:12:31.487Z,1005.9
2022-09-07T00:13:40.670Z,1005.8
2022-09-07T00:14:49.834Z,1005.8
2022-09-07T00:15:59.014Z,1005.8
2022-09-07T00:17:08.181Z,1005.8
2022-09-07T00:18:17.359Z,1005.8
2022-09-07T00:19:26.532Z,1005.7
2022-09-07T00:20:35.697Z,1005.7
2022-09-07T00:21:44.893Z,1005.7
2022-09-07T00:22:54.042Z,1005.7
2022-09-07T00:24:02.232Z,1005.7
2022-09-07T00:25:11.402Z,1005.7
2022-09-07T00:27:29.739Z,1005.8
2022-09-07T00:28:38.924Z,1005.9
2022-09-07T00:29:48.097Z,1005.9
2022-09-07T00:30:57.264Z,1006
2022-09-07T00:32:06.450Z,1006
2022-09-07T00:33:15.615Z,1006.1
2022-09-07T00:34:24.778Z,1006
2022-09-07T00:35:33.951Z,1006
2022-09-07T00:36:43.131Z,1006.1
2022-09-07T00:37:52.295Z,1006.2
2022-09-07T00:39:00.489Z,1006.4
2022-09-07T00:40:09.660Z,1006.8
2022-09-07T00:41:18.835Z,1006.8
2022-09-07T00:42:27.998Z,1006.8
2022-09-07T00:43:37.181Z,1007.1
2022-09-07T00:44:46.351Z,1007.2
2022-09-07T00:45:55.522Z,1007.2
2022-09-07T00:47:04.692Z,1007.4
2022-09-07T00:48:13.867Z,1007.5
2022-09-07T00:49:23.033Z,1007.5
2022-09-07T00:50:32.205Z,1007.5
2022-09-07T00:51:41.384Z,1007.3
2022-09-07T00:52:50.563Z,1007.5
2022-09-07T00:53:58.737Z,1007.4
2022-09-07T00:55:07.913Z,1007.4
2022-09-07T00:56:17.081Z,1007.5
2022-09-07T00:57:26.274Z,1007.5
2022-09-07T00:58:35.424Z,1007.5
2022-09-07T00:59:44.606Z,1007.5
2022-09-07T01:00:53.777Z,1007.5
2022-09-07T01:02:02.948Z,1007.5
2022-09-07T01:03:12.131Z,1007.4
2022-09-07T01:04:21.304Z,1007.4
2022-09-07T01:05:30.462Z,1007.4
2022-09-07T01:06:39.638Z,1007.5
2022-09-07T01:07:48.818Z,1007.5
2022-09-07T01:08:56.992Z,1007.4
2022-09-07T01:10:06.171Z,1007.5
2022-09-07T01:11:15.350Z,1007.5
2022-09-07T01:12:24.518Z,1007.5
2022-09-07T01:13:33.693Z,1007.5
2022-09-07T01:14:42.858Z,1007.5
2022-09-07T01:15:52.019Z,1007.5
2022-09-07T01:17:01.200Z,1007.5
2022-09-07T01:18:10.377Z,1007.6
2022-09-07T01:19:18.570Z,1007.6
2022-09-07T01:20:26.754Z,1007.7
2022-09-07T01:21:35.926Z,1007.7
2022-09-07T01:22:44.120Z,1007.8
2022-09-07T01:23:53.288Z,1007.8
2022-09-07T01:25:01.490Z,1007.7
2022-09-07T01:26:10.650Z,1007.7
2022-09-07T01:28:29.009Z,1007.7
2022-09-07T01:29:38.160Z,1007.7
2022-09-07T01:30:47.348Z,1007.7
2022-09-07T01:31:56.524Z,1007.8
2022-09-07T01:33:05.693Z,1007.9
2022-09-07T01:34:14.858Z,1007.9
2022-09-07T01:35:24.028Z,1007.9
2022-09-07T01:36:33.212Z,1007.9
2022-09-07T01:37:42.385Z,1007.9
2022-09-07T01:38:51.554Z,1008
2022-09-07T01:39:59.738Z,1008
2022-09-07T01:41:08.940Z,1008
2022-09-07T01:42:18.086Z,1008.1
2022-09-07T01:43:27.251Z,1008
2022-09-07T01:44:36.429Z,1008
2022-09-07T01:45:45.606Z,1008.1
2022-09-07T01:46:54.780Z,1008.1
2022-09-07T01:48:03.944Z,1008
2022-09-07T01:49:13.115Z,1008.1
2022-09-07T01:50:22.288Z,1008.1
2022-09-07T01:51:31.464Z,1008
2022-09-07T01:52:40.636Z,1008
2022-09-07T01:53:49.805Z,1008
2022-09-07T01:54:58.006Z,1008
2022-09-07T01:56:07.171Z,1008
2022-09-07T01:57:16.342Z,1008
2022-09-07T01:58:25.523Z,1008
2022-09-07T01:59:33.713Z,1008
2022-09-07T02:00:42.886Z,1008
2022-09-07T02:01:52.053Z,1008
2022-09-07T02:03:01.231Z,1008
2022-09-07T02:04:10.390Z,1007.9
2022-09-07T02:05:19.566Z,1008
2022-09-07T02:06:28.736Z,1007.9
2022-09-07T02:07:37.915Z,1007.9
2022-09-07T02:08:47.090Z,1008
2022-09-07T02:09:56.262Z,1007.9
2022-09-07T02:11:05.433Z,1007.8
2022-09-07T02:12:14.612Z,1007.8
2022-09-07T02:13:23.777Z,1007.8
2022-09-07T02:14:31.968Z,1007.8
2022-09-07T02:15:41.145Z,1007.7
2022-09-07T02:16:50.319Z,1007.8
2022-09-07T02:17:59.473Z,1007.7
2022-09-07T02:19:08.690Z,1007.7
2022-09-07T02:20:17.828Z,1007.7
2022-09-07T02:21:27.000Z,1007.6
2022-09-07T02:22:36.174Z,1007.5
2022-09-07T02:23:45.347Z,1007.4
2022-09-07T02:24:54.519Z,1007.4
2022-09-07T02:26:03.699Z,1007.3
2022-09-07T02:27:12.859Z,1007.3
2022-09-07T02:28:22.038Z,1007.3
2022-09-07T02:29:30.219Z,1007.4
2022-09-07T02:30:39.394Z,1007.4
2022-09-07T02:31:48.567Z,1007.4
2022-09-07T02:32:57.735Z,1007.4
2022-09-07T02:34:06.908Z,1007.3
2022-09-07T02:35:16.104Z,1007.3
2022-09-07T02:36:25.261Z,1007.3
2022-09-07T02:37:34.433Z,1007.3
2022-09-07T02:38:43.598Z,1007.3
2022-09-07T02:39:52.785Z,1007.2
2022-09-07T02:41:01.954Z,1007.3
2022-09-07T02:42:11.124Z,1007.2
2022-09-07T02:43:20.297Z,1007.2
2022-09-07T02:44:28.485Z,1007.2
2022-09-07T02:45:37.669Z,1007.2
2022-09-07T02:46:46.830Z,1007.1
2022-09-07T02:47:56.012Z,1007.1
2022-09-07T02:49:05.176Z,1007.1
2022-09-07T02:50:14.348Z,1007.1
2022-09-07T02:51:23.521Z,1007.1
2022-09-07T02:52:32.694Z,1007.1
2022-09-07T02:53:41.870Z,1007.1
2022-09-07T02:54:51.046Z,1007.1
2022-09-07T02:56:00.213Z,1007
2022-09-07T02:57:09.385Z,1007.1
2022-09-07T02:58:18.552Z,1007
2022-09-07T02:59:26.745Z,1007
2022-09-07T03:00:35.920Z,1007
2022-09-07T03:01:45.092Z,1007
2022-09-07T03:02:53.293Z,1006.9
2022-09-07T03:04:01.498Z,1006.8
2022-09-07T03:05:10.657Z,1006.8
2022-09-07T03:06:19.818Z,1006.8
2022-09-07T03:07:28.014Z,1006.7
2022-09-07T03:08:36.203Z,1006.7
2022-09-07T03:09:45.381Z,1006.6
2022-09-07T03:10:54.550Z,1006.6
2022-09-07T03:12:03.718Z,1006.5
2022-09-07T03:13:12.885Z,1006.5
2022-09-07T03:14:22.057Z,1006.5
2022-09-07T03:15:31.228Z,1006.5
2022-09-07T03:16:40.412Z,1006.6
2022-09-07T03:17:49.592Z,1006.5
2022-09-07T03:18:58.754Z,1006.5
2022-09-07T03:20:07.933Z,1006.5
2022-09-07T03:21:17.096Z,1006.4
2022-09-07T03:22:26.277Z,1006.3
2022-09-07T03:23:34.458Z,1006.3
2022-09-07T03:24:43.634Z,1006.3
2022-09-07T03:25:52.803Z,1006.2
2022-09-07T03:27:01.977Z,1006.2
2022-09-07T03:28:11.150Z,1006.2
2022-09-07T03:29:20.327Z,1006.2
2022-09-07T03:30:29.501Z,1006.3
2022-09-07T03:31:38.684Z,1006.2
2022-09-07T03:32:47.840Z,1006.2
2022-09-07T03:33:57.015Z,1006.2
2022-09-07T03:35:06.187Z,1006.1
2022-09-07T03:36:15.364Z,1006.1
2022-09-07T03:37:24.535Z,1006.2
2022-09-07T03:38:32.718Z,1006.1
2022-09-07T03:39:41.898Z,1006.1
2022-09-07T03:40:51.071Z,1006.1
2022-09-07T03:42:00.241Z,1006.2
2022-09-07T03:43:09.416Z,1006.2
2022-09-07T03:44:18.595Z,1006.2
2022-09-07T03:45:27.760Z,1006.2
2022-09-07T03:46:36.937Z,1006.3
2022-09-07T03:47:46.106Z,1006.2
2022-09-07T03:48:55.285Z,1006.2
2022-09-07T03:50:04.441Z,1006.2
2022-09-07T03:51:13.624Z,1006.3
2022-09-07T03:52:22.791Z,1006.2
2022-09-07T03:53:31.961Z,1006.2
2022-09-07T03:54:40.164Z,1006.2
2022-09-07T03:55:49.328Z,1006.2
2022-09-07T03:56:58.503Z,1006.2
2022-09-07T03:58:07.671Z,1006.1
2022-09-07T03:59:16.842Z,1006.1
2022-09-07T04:00:26.013Z,1006.2
2022-09-07T04:01:35.181Z,1006.2
2022-09-07T04:02:44.365Z,1006.2
2022-09-07T04:03:53.556Z,1006.1
2022-09-07T04:05:02.764Z,1006.3
2022-09-07T04:06:11.878Z,1006.3
2022-09-07T04:07:21.054Z,1006.2
2022-09-07T04:09:39.412Z,1006.3
2022-09-07T04:10:47.591Z,1006.3
2022-09-07T04:11:56.753Z,1006.3
2022-09-07T04:13:05.934Z,1006.3
2022-09-07T04:14:15.106Z,1006.2
2022-09-07T04:15:24.285Z,1006.3
2022-09-07T04:16:33.457Z,1006.3
2022-09-07T04:17:42.634Z,1006.3
2022-09-07T04:18:51.803Z,1006.3
2022-09-07T04:20:00.971Z,1006.4
2022-09-07T04:21:10.140Z,1006.3
2022-09-07T04:22:19.308Z,1006.4
2022-09-07T04:23:28.484Z,1006.4
2022-09-07T04:24:37.658Z,1006.4
2022-09-07T04:25:45.848Z,1006.4
2022-09-07T04:26:55.014Z,1006.4
2022-09-07T04:28:04.198Z,1006.4
2022-09-07T04:29:13.362Z,1006.3
2022-09-07T04:30:22.539Z,1006.3
2022-09-07T04:31:31.727Z,1006.3
2022-09-07T04:32:40.887Z,1006.3
2022-09-07T04:33:50.048Z,1006.3
2022-09-07T04:34:59.231Z,1006.3
2022-09-07T04:36:08.396Z,1006.3
2022-09-07T04:37:17.571Z,1006.3
2022-09-07T04:38:26.750Z,1006.3
2022-09-07T04:39:35.936Z,1006.3
2022-09-07T04:40:44.104Z,1006.3
2022-09-07T04:41:53.277Z,1006.3
2022-09-07T04:43:02.462Z,1006.4
2022-09-07T04:44:11.625Z,1006.4
2022-09-07T04:45:20.810Z,1006.3
2022-09-07T04:46:28.993Z,1006.3
2022-09-07T04:47:37.178Z,1006.3
2022-09-07T04:48:46.357Z,1006.3
2022-09-07T04:49:55.531Z,1006.2
2022-09-07T04:51:03.721Z,1006.3
2022-09-07T04:52:11.909Z,1006.2
2022-09-07T04:53:21.074Z,1006.2
2022-09-07T04:54:30.250Z,1006.2
2022-09-07T04:55:39.426Z,1006.2
2022-09-07T04:56:48.606Z,1006.3
2022-09-07T04:57:57.774Z,1006.2
2022-09-07T04:59:06.946Z,1006.3
2022-09-07T05:00:16.130Z,1006.3
2022-09-07T05:01:25.293Z,1006.3
2022-09-07T05:02:34.464Z,1006.3
2022-09-07T05:03:43.649Z,1006.3
2022-09-07T05:04:52.801Z,1006.3
2022-09-07T05:06:01.987Z,1006.3
2022-09-07T05:07:10.187Z,1006.4
2022-09-07T05:08:19.341Z,1006.4
2022-09-07T05:09:28.521Z,1006.4
2022-09-07T05:10:37.685Z,1006.4
2022-09-07T05:11:46.860Z,1006.4
2022-09-07T05:12:56.024Z,1006.4
2022-09-07T05:14:05.203Z,1006.5
2022-09-07T05:15:14.379Z,1006.4
2022-09-07T05:16:23.559Z,1006.4
2022-09-07T05:17:32.728Z,1006.4
2022-09-07T05:18:41.896Z,1006.5
2022-09-07T05:19:51.061Z,1006.5
2022-09-07T05:21:00.266Z,1006.5
2022-09-07T05:22:08.435Z,1006.5
2022-09-07T05:23:17.601Z,1006.5
2022-09-07T05:24:26.774Z,1006.5
2022-09-07T05:25:35.941Z,1006.4
2022-09-07T05:26:45.118Z,1006.5
2022-09-07T05:27:54.289Z,1006.5
2022-09-07T05:29:03.463Z,1006.5
2022-09-07T05:30:12.633Z,1006.5
2022-09-07T05:31:21.801Z,1006.6
2022-09-07T05:32:30.984Z,1006.6
2022-09-07T05:33:40.157Z,1006.6
2022-09-07T05:34:49.321Z,1006.6
2022-09-07T05:35:58.509Z,1006.6
2022-09-07T05:37:06.709Z,1006.6
2022-09-07T05:38:15.867Z,1006.6
2022-09-07T05:39:25.039Z,1006.6
2022-09-07T05:40:34.207Z,1006.6
2022-09-07T05:41:43.373Z,1006.6
2022-09-07T05:42:52.554Z,1006.6
2022-09-07T05:44:01.714Z,1006.6
2022-09-07T05:45:10.901Z,1006.5
2022-09-07T05:46:20.061Z,1006.6
2022-09-07T05:47:29.243Z,1006.6
2022-09-07T05:48:38.408Z,1006.6
2022-09-07T05:49:47.582Z,1006.6
2022-09-07T05:50:55.793Z,1006.6
2022-09-07T05:52:04.948Z,1006.6
2022-09-07T05:53:14.125Z,1006.5
2022-09-07T05:54:23.300Z,1006.6
2022-09-07T05:55:32.490Z,1006.6
2022-09-07T05:56:41.634Z,1006.6
2022-09-07T05:57:50.830Z,1006.6
2022-09-07T05:58:59.980Z,1006.6
2022-09-07T06:00:09.156Z,1006.6
2022-09-07T06:01:18.334Z,1006.7
2022-09-07T06:02:27.498Z,1006.7
2022-09-07T06:03:36.679Z,1006.6
2022-09-07T06:04:45.850Z,1006.7
2022-09-07T06:05:54.037Z,1006.7
2022-09-07T06:07:03.205Z,1006.7
2022-09-07T06:08:12.385Z,1006.7
2022-09-07T06:09:21.555Z,1006.7
2022-09-07T06:10:30.730Z,1006.7
2022-09-07T06:11:39.897Z,1006.7
2022-09-07T06:12:49.076Z,1006.6
2022-09-07T06:13:58.258Z,1006.7
2022-09-07T06:15:07.423Z,1006.6
2022-09-07T06:16:16.611Z,1006.7
2022-09-07T06:17:25.766Z,1006.7
2022-09-07T06:18:34.955Z,1006.8
2022-09-07T06:19:44.107Z,1006.7
2022-09-07T06:20:52.294Z,1006.8
2022-09-07T06:22:01.475Z,1006.8
2022-09-07T06:23:10.640Z,1006.8
2022-09-07T06:24:19.817Z,1006.8
2022-09-07T06:25:28.993Z,1006.8
2022-09-07T06:26:38.158Z,1006.8
2022-09-07T06:27:47.338Z,1006.8
2022-09-07T06:28:56.507Z,1006.8
2022-09-07T06:30:05.674Z,1006.8
2022-09-07T06:31:14.848Z,1006.9
2022-09-07T06:32:24.018Z,1006.9
2022-09-07T06:33:33.190Z,1006.9
2022-09-07T06:34:42.365Z,1007
2022-09-07T06:35:50.547Z,1007
2022-09-07T06:36:59.727Z,1007
2022-09-07T06:38:08.896Z,1007
2022-09-07T06:39:18.077Z,1007
2022-09-07T06:40:27.244Z,1006.9
2022-09-07T06:41:36.406Z,1006.9
2022-09-07T06:42:45.588Z,1006.9
2022-09-07T06:43:54.765Z,1006.9
2022-09-07T06:45:03.930Z,1006.9
2022-09-07T06:46:13.106Z,1006.9
2022-09-07T06:48:31.446Z,1006.9
2022-09-07T06:49:40.639Z,1006.9
2022-09-07T06:50:48.810Z,1006.9
2022-09-07T06:51:57.993Z,1006.9
2022-09-07T06:53:07.153Z,1006.9
2022-09-07T06:54:16.319Z,1007
2022-09-07T06:55:25.503Z,1007
2022-09-07T06:56:34.670Z,1007
2022-09-07T06:57:43.842Z,1007
2022-09-07T06:58:53.011Z,1006.9
2022-09-07T07:00:02.203Z,1007
2022-09-07T07:01:11.362Z,1007
2022-09-07T07:02:20.534Z,1007
2022-09-07T07:03:29.706Z,1007
2022-09-07T07:04:38.886Z,1007.1
2022-09-07T07:05:47.067Z,1007
2022-09-07T07:06:56.243Z,1007
2022-09-07T07:08:05.419Z,1007
2022-09-07T07:09:14.585Z,1007
2022-09-07T07:10:23.763Z,1007.1
2022-09-07T07:13:51.278Z,1007
2022-09-07T07:15:00.453Z,1007.1
2022-09-07T07:16:09.632Z,1007
2022-09-07T07:17:18.802Z,1007
2022-09-07T07:18:27.970Z,1007
2022-09-07T07:19:37.145Z,1007
2022-09-07T07:20:45.324Z,1007
2022-09-07T07:21:54.510Z,1006.9
2022-09-07T07:23:03.676Z,1006.9
2022-09-07T07:24:12.845Z,1006.9
2022-09-07T07:25:22.021Z,1006.9
2022-09-07T07:26:31.204Z,1007
2022-09-07T07:27:40.363Z,1007
2022-09-07T07:28:49.526Z,1007
2022-09-07T07:29:58.700Z,1007
2022-09-07T07:31:07.895Z,1007
2022-09-07T07:32:17.049Z,1007
2022-09-07T07:33:26.254Z,1007
2022-09-07T07:34:35.411Z,1007
2022-09-07T07:35:43.591Z,1007.1
2022-09-07T07:36:52.756Z,1007.1
2022-09-07T07:38:01.932Z,1007.1
2022-09-07T07:39:11.119Z,1007.2
2022-09-07T07:40:20.291Z,1007.1
2022-09-07T07:41:29.446Z,1007.2
2022-09-07T07:42:38.611Z,1007.3
2022-09-07T07:43:47.793Z,1007.2
2022-09-07T07:44:56.959Z,1007.2
2022-09-07T07:46:06.128Z,1007.2
2022-09-07T07:47:15.308Z,1007.2
2022-09-07T07:48:24.482Z,1007.1
2022-09-07T07:49:33.649Z,1007.2
2022-09-07T07:50:41.838Z,1007.2
2022-09-07T07:51:51.011Z,1007.2
2022-09-07T07:53:00.181Z,1007.2
2022-09-07T07:54:09.354Z,1007.3
2022-09-07T07:55:18.531Z,1007.3
2022-09-07T07:56:27.698Z,1007.3
2022-09-07T07:57:36.872Z,1007.3
2022-09-07T07:58:46.044Z,1007.2
2022-09-07T07:59:55.236Z,1007.3
2022-09-07T08:01:04.420Z,1007.3
2022-09-07T08:02:13.588Z,1007.3
2022-09-07T08:03:22.773Z,1007.3
2022-09-07T08:04:31.913Z,1007.3
2022-09-07T08:05:40.092Z,1007.3
2022-09-07T08:06:49.266Z,1007.3
2022-09-07T08:07:58.446Z,1007.3
2022-09-07T08:09:07.611Z,1007.4
2022-09-07T08:10:16.798Z,1007.4
2022-09-07T08:11:25.960Z,1007.4
2022-09-07T08:12:35.129Z,1007.4
2022-09-07T08:13:44.332Z,1007.4
2022-09-07T08:14:53.472Z,1007.4
2022-09-07T08:16:02.701Z,1007.4
2022-09-07T08:17:11.838Z,1007.4
2022-09-07T08:18:20.994Z,1007.5
2022-09-07T08:19:30.168Z,1007.5
2022-09-07T08:20:38.347Z,1007.5
2022-09-07T08:21:47.525Z,1007.5
2022-09-07T08:22:56.698Z,1007.6
2022-09-07T08:24:05.857Z,1007.6
2022-09-07T08:25:15.048Z,1007.6
2022-09-07T08:26:24.211Z,1007.6
2022-09-07T08:27:33.400Z,1007.6
2022-09-07T08:28:42.555Z,1007.6
2022-09-07T08:29:51.738Z,1007.6
2022-09-07T08:31:00.966Z,1007.6
2022-09-07T08:32:10.072Z,1007.6
2022-09-07T08:33:19.260Z,1007.6
2022-09-07T08:34:28.417Z,1007.7
2022-09-07T08:35:36.612Z,1007.7
2022-09-07T08:36:45.780Z,1007.6
2022-09-07T08:37:54.951Z,1007.7
2022-09-07T08:39:04.131Z,1007.7
2022-09-07T08:40:13.296Z,1007.7
2022-09-07T08:41:22.467Z,1007.6
2022-09-07T08:42:31.637Z,1007.7
2022-09-07T08:43:40.809Z,1007.7
2022-09-07T08:44:49.993Z,1007.7
2022-09-07T08:45:59.159Z,1007.8
2022-09-07T08:47:08.328Z,1007.7
2022-09-07T08:48:17.506Z,1007.7
2022-09-07T08:49:26.674Z,1007.7
2022-09-07T08:50:34.863Z,1007.7
2022-09-07T08:51:44.040Z,1007.7
2022-09-07T08:52:53.241Z,1007.8
2022-09-07T08:54:02.406Z,1007.8
2022-09-07T08:55:11.548Z,1007.8
2022-09-07T08:56:20.727Z,1007.8
2022-09-07T08:57:29.920Z,1007.8
2022-09-07T08:58:39.065Z,1007.8
2022-09-07T08:59:48.243Z,1007.9
2022-09-07T09:00:57.427Z,1007.8
2022-09-07T09:02:06.583Z,1007.8
2022-09-07T09:03:15.815Z,1007.9
2022-09-07T09:04:24.997Z,1007.8
2022-09-07T09:05:33.151Z,1007.8
2022-09-07T09:06:42.341Z,1007.8
2022-09-07T09:07:51.464Z,1007.8
2022-09-07T09:09:00.636Z,1007.8
2022-09-07T09:10:09.816Z,1007.8
2022-09-07T09:11:18.988Z,1007.8
2022-09-07T09:12:28.167Z,1007.9
2022-09-07T09:13:37.333Z,1007.8
2022-09-07T09:14:46.555Z,1007.9
2022-09-07T09:15:55.750Z,1007.9
2022-09-07T09:17:04.881Z,1007.9
2022-09-07T09:18:14.021Z,1007.9
2022-09-07T09:19:23.193Z,1007.9
2022-09-07T09:20:31.381Z,1007.8
2022-09-07T09:21:40.576Z,1007.9
2022-09-07T09:22:49.730Z,1007.9
2022-09-07T09:23:58.913Z,1007.9
2022-09-07T09:25:07.089Z,1008
2022-09-07T09:26:15.273Z,1007.9
2022-09-07T09:27:24.451Z,1007.9
2022-09-07T09:28:33.615Z,1007.9
2022-09-07T09:29:41.819Z,1007.8
2022-09-07T09:30:50.003Z,1007.9
2022-09-07T09:31:59.178Z,1007.9
2022-09-07T09:33:08.356Z,1007.9
2022-09-07T09:34:17.515Z,1008
2022-09-07T09:35:26.739Z,1008
2022-09-07T09:36:35.853Z,1008
2022-09-07T09:37:45.091Z,1007.9
2022-09-07T09:38:54.205Z,1008
2022-09-07T09:40:03.381Z,1008
2022-09-07T09:41:12.558Z,1008
2022-09-07T09:43:29.940Z,1008
2022-09-07T09:44:38.137Z,1007.9
2022-09-07T09:45:47.289Z,1007.9
2022-09-07T09:46:56.462Z,1007.9
2022-09-07T09:48:05.629Z,1007.9
2022-09-07T09:49:14.823Z,1007.9
2022-09-07T09:50:23.973Z,1007.9
2022-09-07T09:51:33.155Z,1007.8
2022-09-07T09:52:42.335Z,1007.8
2022-09-07T09:53:51.491Z,1007.8
2022-09-07T09:55:00.682Z,1007.8
2022-09-07T09:56:09.869Z,1007.9
2022-09-07T09:57:19.033Z,1007.9
2022-09-07T09:58:28.187Z,1007.9
2022-09-07T09:59:36.375Z,1007.9
2022-09-07T10:00:45.549Z,1007.9
2022-09-07T10:01:54.723Z,1007.8
2022-09-07T10:03:03.899Z,1007.8
2022-09-07T10:04:13.062Z,1007.8
2022-09-07T10:05:22.241Z,1007.7
2022-09-07T10:06:31.415Z,1007.7
2022-09-07T10:07:40.675Z,1007.7
2022-09-07T10:08:48.841Z,1007.7
2022-09-07T10:09:56.959Z,1007.7
2022-09-07T10:11:06.179Z,1007.7
2022-09-07T10:12:15.345Z,1007.7
2022-09-07T10:13:24.493Z,1007.7
2022-09-07T10:14:33.703Z,1007.7
2022-09-07T10:15:42.888Z,1007.6
2022-09-07T10:16:52.043Z,1007.5
2022-09-07T10:18:01.208Z,1007.4
2022-09-07T10:19:10.392Z,1007.4
2022-09-07T10:20:19.554Z,1007.4
2022-09-07T10:21:28.725Z,1007.3
2022-09-07T10:22:37.905Z,1007.3
2022-09-07T10:23:47.039Z,1007.3
2022-09-07T10:24:55.224Z,1007.3
2022-09-07T10:26:04.392Z,1007.3
2022-09-07T10:27:13.568Z,1007.2
2022-09-07T10:28:22.762Z,1007.3
2022-09-07T10:29:31.921Z,1007.2
2022-09-07T10:30:41.082Z,1007.2
2022-09-07T10:31:50.252Z,1007.3
2022-09-07T10:32:58.484Z,1007.2
2022-09-07T10:34:06.641Z,1007.3
2022-09-07T10:35:15.831Z,1007.4
2022-09-07T10:36:24.013Z,1007.4
2022-09-07T10:37:32.201Z,1007.4
2022-09-07T10:38:41.364Z,1007.4
2022-09-07T10:39:50.539Z,1007.4
2022-09-07T10:40:59.767Z,1007.5
2022-09-07T10:42:08.877Z,1007.5
2022-09-07T10:43:18.060Z,1007.4
2022-09-07T10:44:27.254Z,1007.5
2022-09-07T10:45:36.421Z,1007.5
2022-09-07T10:46:45.576Z,1007.5
2022-09-07T10:47:54.760Z,1007.5
2022-09-07T10:49:03.912Z,1007.5
2022-09-07T10:50:13.093Z,1007.5
2022-09-07T10:51:22.258Z,1007.5
2022-09-07T10:52:30.452Z,1007.5
2022-09-07T10:53:39.697Z,1007.4
2022-09-07T10:54:48.818Z,1007.5
2022-09-07T10:55:57.993Z,1007.5
2022-09-07T10:57:07.155Z,1007.5
2022-09-07T10:58:16.344Z,1007.6
2022-09-07T10:59:25.490Z,1007.6
2022-09-07T11:00:34.698Z,1007.6
2022-09-07T11:01:42.861Z,1007.6
2022-09-07T11:02:51.040Z,1007.6
2022-09-07T11:04:00.211Z,1007.7
2022-09-07T11:05:09.409Z,1007.6
2022-09-07T11:06:18.592Z,1007.7
2022-09-07T11:07:27.759Z,1007.6
2022-09-07T11:08:36.895Z,1007.7
2022-09-07T11:09:45.094Z,1007.7
2022-09-07T11:10:54.300Z,1007.6
2022-09-07T11:12:02.455Z,1007.6
2022-09-07T11:13:11.624Z,1007.6
2022-09-07T11:14:20.800Z,1007.5
2022-09-07T11:15:29.974Z,1007.6
2022-09-07T11:16:39.140Z,1007.6
2022-09-07T11:17:48.319Z,1007.6
2022-09-07T11:18:57.510Z,1007.6
2022-09-07T11:20:06.677Z,1007.6
2022-09-07T11:21:15.867Z,1007.6
2022-09-07T11:22:25.005Z,1007.6
2022-09-07T11:23:34.178Z,1007.6
2022-09-07T11:24:43.347Z,1007.7
2022-09-07T11:25:52.525Z,1007.6
2022-09-07T11:27:00.767Z,1007.7
2022-09-07T11:28:09.879Z,1007.7
2022-09-07T11:29:19.059Z,1007.7
2022-09-07T11:30:28.237Z,1007.6
2022-09-07T11:31:37.394Z,1007.7
2022-09-07T11:32:46.598Z,1007.7
2022-09-07T11:33:55.756Z,1007.7
2022-09-07T11:35:04.921Z,1007.7
2022-09-07T11:36:14.109Z,1007.7
2022-09-07T11:37:23.326Z,1007.7
2022-09-07T11:38:32.473Z,1007.8
2022-09-07T11:39:41.624Z,1007.7
2022-09-07T11:40:50.776Z,1007.7
2022-09-07T11:41:58.970Z,1007.7
2022-09-07T11:43:08.153Z,1007.7
2022-09-07T11:44:17.324Z,1007.7
2022-09-07T11:45:26.527Z,1007.8
2022-09-07T11:46:35.699Z,1007.8
2022-09-07T11:47:44.878Z,1007.7
2022-09-07T11:48:54.007Z,1007.8
2022-09-07T11:50:03.183Z,1007.8
2022-09-07T11:51:12.362Z,1007.7
2022-09-07T11:52:21.526Z,1007.8
2022-09-07T11:53:30.692Z,1007.7
2022-09-07T11:54:39.869Z,1007.8
2022-09-07T11:55:49.061Z,1007.8
2022-09-07T11:56:58.203Z,1007.7
2022-09-07T11:58:06.396Z,1007.8
2022-09-07T11:59:15.574Z,1007.8
2022-09-07T12:00:24.785Z,1007.8
2022-09-07T12:01:33.931Z,1007.7
2022-09-07T12:02:43.106Z,1007.7
2022-09-07T12:03:52.273Z,1007.7
2022-09-07T12:05:01.438Z,1007.6
2022-09-07T12:06:10.620Z,1007.7
2022-09-07T12:07:19.801Z,1007.7
2022-09-07T12:08:28.961Z,1007.7
2022-09-07T12:09:37.140Z,1007.7
2022-09-07T12:10:45.346Z,1007.6
2022-09-07T12:11:54.504Z,1007.7
2022-09-07T12:13:03.705Z,1007.7
2022-09-07T12:14:12.846Z,1007.6
2022-09-07T12:15:21.043Z,1007.7
2022-09-07T12:16:30.224Z,1007.7
2022-09-07T12:17:38.423Z,1007.7
2022-09-07T12:18:47.576Z,1007.7
2022-09-07T12:19:56.787Z,1007.6
2022-09-07T12:21:05.932Z,1007.6
2022-09-07T12:22:15.118Z,1007.6
2022-09-07T12:23:24.274Z,1007.6
2022-09-07T12:24:33.439Z,1007.6
2022-09-07T12:25:42.617Z,1007.5
2022-09-07T12:26:51.807Z,1007.6
2022-09-07T12:28:00.950Z,1007.5
2022-09-07T12:29:10.125Z,1007.5
2022-09-07T12:30:19.297Z,1007.5
2022-09-07T12:31:28.515Z,1007.5
2022-09-07T12:32:37.677Z,1007.5
2022-09-07T12:33:45.836Z,1007.5
2022-09-07T12:34:55.005Z,1007.5
2022-09-07T12:36:04.208Z,1007.5
2022-09-07T12:37:13.365Z,1007.5
2022-09-07T12:38:22.526Z,1007.5
2022-09-07T12:40:40.869Z,1007.4
2022-09-07T12:41:50.039Z,1007.4
2022-09-07T12:42:59.261Z,1007.4
2022-09-07T12:44:08.396Z,1007.4
2022-09-07T12:45:17.569Z,1007.4
2022-09-07T12:46:26.747Z,1007.2
2022-09-07T12:47:35.963Z,1007.2
2022-09-07T12:48:44.138Z,1007.2
2022-09-07T12:49:53.310Z,1007.3
2022-09-07T12:51:02.473Z,1007.2
2022-09-07T12:52:11.650Z,1007.1
2022-09-07T12:53:20.797Z,1007.2
2022-09-07T12:54:29.976Z,1007.2
2022-09-07T12:55:39.130Z,1007.2
2022-09-07T12:56:48.305Z,1007.3
2022-09-07T12:57:57.479Z,1007.2
2022-09-07T12:59:06.662Z,1007.2
2022-09-07T13:00:15.871Z,1007.2
2022-09-07T13:01:24.991Z,1007.2
2022-09-07T13:02:34.178Z,1007.2
2022-09-07T13:03:42.354Z,1007.2
2022-09-07T13:04:51.573Z,1007.2
2022-09-07T13:06:00.713Z,1007.2
2022-09-07T13:07:09.885Z,1007.2
2022-09-07T13:08:19.047Z,1007.1
2022-09-07T13:09:28.227Z,1007.1
2022-09-07T13:10:37.390Z,1007.1
2022-09-07T13:11:46.577Z,1007.2
2022-09-07T13:12:55.754Z,1007.1
2022-09-07T13:14:04.922Z,1007.1
2022-09-07T13:15:14.088Z,1007.1
2022-09-07T13:16:23.255Z,1007.1
2022-09-07T13:17:32.439Z,1007.1
2022-09-07T13:18:40.627Z,1007.1
2022-09-07T13:19:49.860Z,1007.1
2022-09-07T13:20:58.974Z,1007.1
2022-09-07T13:22:08.183Z,1007.1
2022-09-07T13:23:17.314Z,1007.1
2022-09-07T13:24:26.506Z,1007.1
2022-09-07T13:25:35.690Z,1007
2022-09-07T13:26:44.822Z,1007
2022-09-07T13:27:53.997Z,1007
2022-09-07T13:29:03.174Z,1007
2022-09-07T13:30:12.345Z,1007
2022-09-07T13:32:30.797Z,1007
2022-09-07T13:33:38.873Z,1007
2022-09-07T13:34:48.058Z,1006.9
2022-09-07T13:35:56.252Z,1007
2022-09-07T13:37:05.474Z,1007
2022-09-07T13:38:13.659Z,1007
2022-09-07T13:39:21.843Z,1007
2022-09-07T13:40:31.020Z,1007
2022-09-07T13:41:40.169Z,1006.9
2022-09-07T13:42:49.340Z,1006.9
2022-09-07T13:43:58.558Z,1006.9
2022-09-07T13:45:07.697Z,1006.9
2022-09-07T13:46:16.845Z,1006.9
2022-09-07T13:47:26.030Z,1006.9
2022-09-07T13:48:35.200Z,1006.8
2022-09-07T13:49:44.386Z,1006.9
2022-09-07T13:50:53.550Z,1006.9
2022-09-07T13:52:02.772Z,1006.8
2022-09-07T13:53:11.900Z,1006.9
2022-09-07T13:54:20.076Z,1006.9
2022-09-07T13:55:29.247Z,1006.8
2022-09-07T13:56:38.469Z,1006.8
2022-09-07T13:57:47.596Z,1006.8
2022-09-07T13:58:56.770Z,1006.7
2022-09-07T14:00:05.976Z,1006.8
2022-09-07T14:01:15.142Z,1006.6
2022-09-07T14:02:23.305Z,1006.7
2022-09-07T14:03:31.487Z,1006.7
2022-09-07T14:04:40.730Z,1006.7
2022-09-07T14:05:49.845Z,1006.6
2022-09-07T14:06:59.019Z,1006.7
2022-09-07T14:08:08.183Z,1006.7
2022-09-07T14:09:17.355Z,1006.7
2022-09-07T14:10:26.573Z,1006.6
2022-09-07T14:11:34.719Z,1006.6
2022-09-07T14:12:42.911Z,1006.6
2022-09-07T14:13:52.081Z,1006.6
2022-09-07T14:16:10.434Z,1006.6
2022-09-07T14:17:19.602Z,1006.6
2022-09-07T14:18:28.770Z,1006.7
2022-09-07T14:19:37.945Z,1006.7
2022-09-07T14:20:47.138Z,1006.6
2022-09-07T14:21:56.291Z,1006.6
2022-09-07T14:23:05.460Z,1006.5
2022-09-07T14:24:14.649Z,1006.5
2022-09-07T14:25:23.811Z,1006.6
2022-09-07T14:26:32.984Z,1006.5
2022-09-07T14:27:41.161Z,1006.5
2022-09-07T14:28:50.337Z,1006.5
2022-09-07T14:29:59.523Z,1006.5
2022-09-07T14:31:08.678Z,1006.4
2022-09-07T14:32:17.860Z,1006.4
2022-09-07T14:33:27.053Z,1006.5
2022-09-07T14:34:36.217Z,1006.4
2022-09-07T14:35:45.405Z,1006.4
2022-09-07T14:36:54.553Z,1006.4
2022-09-07T14:38:03.742Z,1006.4
2022-09-07T14:39:12.886Z,1006.4
2022-09-07T14:40:22.055Z,1006.4